createdAt,value
2017-07-23T00:01:04.095Z,13.27
2017-07-23T00:03:31.248Z,13.80
2017-07-23T00:05:58.432Z,13.30
2017-07-23T00:08:25.658Z,14.53
2017-07-23T00:10:52.822Z,14.97
2017-07-23T00:13:20.272Z,16.60
2017-07-23T00:15:47.431Z,15.30
2017-07-23T00:18:14.670Z,15.00
2017-07-23T00:20:41.866Z,13.73
2017-07-23T00:23:09.019Z,12.60
2017-07-23T00:25:36.185Z,14.80
2017-07-23T00:28:03.386Z,14.60
2017-07-23T00:30:30.537Z,14.77
2017-07-23T00:32:57.705Z,15.70
2017-07-23T00:35:24.901Z,15.30
2017-07-23T00:37:52.071Z,17.30
2017-07-23T00:40:19.224Z,14.90
2017-07-23T00:42:46.404Z,13.73
2017-07-23T00:45:13.556Z,15.07
2017-07-23T00:47:40.708Z,14.30
2017-07-23T00:50:07.901Z,14.90
2017-07-23T00:52:35.720Z,15.10
2017-07-23T00:55:02.877Z,15.67
2017-07-23T00:57:30.082Z,15.70
2017-07-23T00:59:57.227Z,14.37
2017-07-23T01:02:24.392Z,16.17
2017-07-23T01:04:51.589Z,14.30
2017-07-23T01:07:18.738Z,15.33
2017-07-23T01:09:45.893Z,13.93
2017-07-23T01:12:13.096Z,14.90
2017-07-23T01:14:40.252Z,12.87
2017-07-23T01:17:07.409Z,14.80
2017-07-23T01:19:34.593Z,15.10
2017-07-23T01:22:01.755Z,14.03
2017-07-23T01:24:28.920Z,14.30
2017-07-23T01:26:56.097Z,14.70
2017-07-23T01:29:23.541Z,13.95
2017-07-23T01:31:50.692Z,15.60
2017-07-23T01:34:17.868Z,14.80
2017-07-23T01:36:45.023Z,17.00
2017-07-23T01:39:12.183Z,29.50
2017-07-23T01:41:39.356Z,17.93
2017-07-23T01:44:06.508Z,20.10
2017-07-23T01:46:33.674Z,15.20
2017-07-23T01:49:00.860Z,14.60
2017-07-23T01:51:28.028Z,13.90
2017-07-23T01:53:55.191Z,12.63
2017-07-23T01:56:22.378Z,14.10
2017-07-23T01:58:49.535Z,14.90
2017-07-23T02:01:16.702Z,15.40
2017-07-23T02:03:43.889Z,13.00
2017-07-23T02:06:11.049Z,14.13
2017-07-23T02:08:38.216Z,13.03
2017-07-23T02:11:06.080Z,14.13
2017-07-23T02:13:33.237Z,13.73
2017-07-23T02:16:00.397Z,11.93
2017-07-23T02:18:27.593Z,13.97
2017-07-23T02:20:54.738Z,9.70
2017-07-23T02:23:21.899Z,7.90
2017-07-23T02:25:49.072Z,4.63
2017-07-23T02:28:16.220Z,5.90
2017-07-23T02:30:43.372Z,5.20
2017-07-23T02:33:10.552Z,4.33
2017-07-23T02:35:37.707Z,3.93
2017-07-23T02:38:04.867Z,3.13
2017-07-23T02:40:32.051Z,3.57
2017-07-23T02:42:59.204Z,3.90
2017-07-23T02:45:26.345Z,3.50
2017-07-23T02:47:53.513Z,3.60
2017-07-23T02:50:20.658Z,3.00
2017-07-23T02:52:47.819Z,3.20
2017-07-23T02:55:15.003Z,3.80
2017-07-23T02:57:42.160Z,3.37
2017-07-23T03:00:09.304Z,3.20
2017-07-23T03:02:36.500Z,3.23
2017-07-23T03:05:03.644Z,3.70
2017-07-23T03:07:30.789Z,3.10
2017-07-23T03:09:57.952Z,3.50
2017-07-23T03:12:25.092Z,3.43
2017-07-23T03:14:52.246Z,4.67
2017-07-23T03:17:19.420Z,29.97
2017-07-23T03:19:46.567Z,12.70
2017-07-23T03:22:13.728Z,7.97
2017-07-23T03:24:40.915Z,8.37
2017-07-23T03:27:08.067Z,5.50
2017-07-23T03:29:35.231Z,4.97
2017-07-23T03:32:02.409Z,4.10
2017-07-23T03:34:29.549Z,5.30
2017-07-23T03:36:56.693Z,4.50
2017-07-23T03:39:23.860Z,4.40
2017-07-23T03:41:51.016Z,4.00
2017-07-23T03:44:18.160Z,4.50
2017-07-23T03:46:45.334Z,4.77
2017-07-23T03:49:12.484Z,4.07
2017-07-23T03:51:39.628Z,5.13
2017-07-23T03:54:06.808Z,5.27
2017-07-23T03:56:33.956Z,5.57
2017-07-23T03:59:01.104Z,6.00
2017-07-23T04:01:28.286Z,4.90
2017-07-23T04:03:55.445Z,6.23
2017-07-23T04:06:22.608Z,7.13
2017-07-23T04:08:49.791Z,8.93
2017-07-23T04:11:16.945Z,8.20
2017-07-23T04:13:44.093Z,8.73
2017-07-23T04:16:11.267Z,6.50
2017-07-23T04:18:38.421Z,6.70
2017-07-23T04:21:05.573Z,6.37
2017-07-23T04:23:32.773Z,5.23
2017-07-23T04:25:59.925Z,20.90
2017-07-23T04:28:27.068Z,15.63
2017-07-23T04:30:54.258Z,8.40
2017-07-23T04:33:21.400Z,7.57
2017-07-23T04:35:48.630Z,5.90
2017-07-23T04:38:15.828Z,5.30
2017-07-23T04:40:43.069Z,4.73
2017-07-23T04:43:10.217Z,4.40
2017-07-23T04:45:37.387Z,5.10
2017-07-23T04:48:04.580Z,4.30
2017-07-23T04:50:31.742Z,4.23
2017-07-23T04:52:58.925Z,4.50
2017-07-23T04:55:26.073Z,4.83
2017-07-23T04:57:53.219Z,5.17
2017-07-23T05:00:20.397Z,4.50
2017-07-23T05:02:47.554Z,4.63
2017-07-23T05:05:14.701Z,4.73
2017-07-23T05:07:41.869Z,5.60
2017-07-23T05:10:09.026Z,4.53
2017-07-23T05:12:36.176Z,4.70
2017-07-23T05:15:03.469Z,4.57
2017-07-23T05:17:30.729Z,4.40
2017-07-23T05:19:57.879Z,4.70
2017-07-23T05:22:25.072Z,4.60
2017-07-23T05:24:52.232Z,5.00
2017-07-23T05:27:19.394Z,4.50
2017-07-23T05:29:46.891Z,4.30
2017-07-23T05:32:14.035Z,4.00
2017-07-23T05:34:41.181Z,5.13
2017-07-23T05:37:08.651Z,5.50
2017-07-23T05:39:35.914Z,7.70
2017-07-23T05:42:02.901Z,13.90
2017-07-23T05:44:30.081Z,5.80
2017-07-23T05:46:57.235Z,9.47
2017-07-23T05:49:24.411Z,5.83
2017-07-23T05:51:51.628Z,8.53
2017-07-23T05:54:18.793Z,8.03
2017-07-23T05:56:45.952Z,8.50
2017-07-23T05:59:13.136Z,6.70
2017-07-23T06:01:40.276Z,7.60
2017-07-23T06:04:07.438Z,7.60
2017-07-23T06:06:34.633Z,5.97
2017-07-23T06:09:01.836Z,13.30
2017-07-23T06:11:28.985Z,5.50
2017-07-23T06:13:56.188Z,5.70
2017-07-23T06:16:23.340Z,7.80
2017-07-23T06:18:50.310Z,5.60
2017-07-23T06:21:17.518Z,5.50
2017-07-23T06:23:45.335Z,6.00
2017-07-23T06:26:12.481Z,5.60
2017-07-23T06:28:39.661Z,5.50
2017-07-23T06:31:06.821Z,5.43
2017-07-23T06:33:33.972Z,6.00
2017-07-23T06:36:01.429Z,6.20
2017-07-23T06:38:28.588Z,6.03
2017-07-23T06:40:55.745Z,6.70
2017-07-23T06:43:22.940Z,6.37
2017-07-23T06:45:50.092Z,7.20
2017-07-23T06:48:17.246Z,7.00
2017-07-23T06:50:44.432Z,6.40
2017-07-23T06:53:11.585Z,6.70
2017-07-23T06:55:38.756Z,5.90
2017-07-23T06:58:05.964Z,44.60
2017-07-23T07:00:33.136Z,23.40
2017-07-23T07:03:00.296Z,20.23
2017-07-23T07:05:27.519Z,9.13
2017-07-23T07:07:54.690Z,7.80
2017-07-23T07:10:21.842Z,6.27
2017-07-23T07:12:49.027Z,5.60
2017-07-23T07:15:16.178Z,4.90
2017-07-23T07:17:43.335Z,6.20
2017-07-23T07:20:11.315Z,4.93
2017-07-23T07:22:38.565Z,4.90
2017-07-23T07:25:05.715Z,5.03
2017-07-23T07:27:32.869Z,5.43
2017-07-23T07:30:00.043Z,3.80
2017-07-23T07:32:27.187Z,4.43
2017-07-23T07:34:54.354Z,4.00
2017-07-23T07:37:21.986Z,5.97
2017-07-23T07:39:49.148Z,16.10
2017-07-23T07:42:16.138Z,25.87
2017-07-23T07:44:43.391Z,21.97
2017-07-23T07:47:10.582Z,13.63
2017-07-23T07:49:37.852Z,20.47
2017-07-23T07:52:05.034Z,9.50
2017-07-23T07:54:32.224Z,8.53
2017-07-23T07:56:59.970Z,9.07
2017-07-23T07:59:28.103Z,9.25
2017-07-23T08:01:55.645Z,4.55
2017-07-23T08:04:23.375Z,5.32
2017-07-23T08:06:50.558Z,3.80
2017-07-23T08:09:17.727Z,4.35
2017-07-23T08:11:44.891Z,3.50
2017-07-23T08:14:12.084Z,3.00
2017-07-23T08:16:39.235Z,4.28
2017-07-23T08:19:06.438Z,3.65
2017-07-23T08:21:33.612Z,8.02
2017-07-23T08:24:00.793Z,10.70
2017-07-23T08:26:27.971Z,9.38
2017-07-23T08:28:55.524Z,25.80
2017-07-23T08:31:22.682Z,7.35
2017-07-23T08:33:49.850Z,16.73
2017-07-23T08:36:17.030Z,8.02
2017-07-23T08:38:44.187Z,5.72
2017-07-23T08:41:11.352Z,8.32
2017-07-23T08:43:38.683Z,3.45
2017-07-23T08:46:05.851Z,7.55
2017-07-23T08:48:33.005Z,3.50
2017-07-23T08:51:00.801Z,2.17
2017-07-23T08:53:28.536Z,2.70
2017-07-23T08:55:55.677Z,2.13
2017-07-23T08:58:23.436Z,2.17
2017-07-23T09:00:51.168Z,2.72
2017-07-23T09:03:18.900Z,2.50
2017-07-23T09:05:46.658Z,2.00
2017-07-23T09:08:15.059Z,2.05
2017-07-23T09:10:42.919Z,1.73
2017-07-23T09:13:10.640Z,2.03
2017-07-23T09:15:38.360Z,2.30
2017-07-23T09:18:06.103Z,1.80
2017-07-23T09:20:33.651Z,2.30
2017-07-23T09:23:00.835Z,1.97
2017-07-23T09:25:28.009Z,2.20
2017-07-23T09:27:55.165Z,2.60
2017-07-23T09:30:22.964Z,2.28
2017-07-23T09:32:50.122Z,1.90
2017-07-23T09:35:17.295Z,2.25
2017-07-23T09:37:44.774Z,2.50
2017-07-23T09:40:11.936Z,2.10
2017-07-23T09:42:39.369Z,2.03
2017-07-23T09:45:06.911Z,1.70
2017-07-23T09:47:34.360Z,2.10
2017-07-23T09:50:01.800Z,1.70
2017-07-23T09:52:29.251Z,1.90
2017-07-23T09:54:56.702Z,2.03
2017-07-23T09:57:24.153Z,1.90
2017-07-23T09:59:51.619Z,2.10
2017-07-23T10:02:18.769Z,1.87
2017-07-23T10:04:45.937Z,1.92
2017-07-23T10:07:13.117Z,2.15
2017-07-23T10:09:40.837Z,1.55
2017-07-23T10:12:08.549Z,1.58
2017-07-23T10:14:36.302Z,1.70
2017-07-23T10:17:03.455Z,1.70
2017-07-23T10:19:30.660Z,2.00
2017-07-23T10:21:58.081Z,1.60
2017-07-23T10:24:25.266Z,2.27
2017-07-23T10:26:52.950Z,1.90
2017-07-23T10:29:20.182Z,2.07
2017-07-23T10:31:47.351Z,1.83
2017-07-23T10:34:14.496Z,2.93
2017-07-23T10:36:41.693Z,3.00
2017-07-23T10:39:08.865Z,2.63
2017-07-23T10:41:36.004Z,2.30
2017-07-23T10:44:03.206Z,2.13
2017-07-23T10:46:30.427Z,1.70
2017-07-23T10:48:57.616Z,2.03
2017-07-23T10:51:24.630Z,2.80
2017-07-23T10:53:51.873Z,1.90
2017-07-23T10:56:19.133Z,1.90
2017-07-23T10:58:46.330Z,11.63
2017-07-23T11:01:13.505Z,15.50
2017-07-23T11:03:40.677Z,14.57
2017-07-23T11:06:07.867Z,29.90
2017-07-23T11:08:35.037Z,13.60
2017-07-23T11:11:02.219Z,19.83
2017-07-23T11:13:29.440Z,49.77
2017-07-23T11:15:56.620Z,23.93
2017-07-23T11:18:23.784Z,6.13
2017-07-23T11:20:51.064Z,21.77
2017-07-23T11:23:18.326Z,6.03
2017-07-23T11:25:45.550Z,4.47
2017-07-23T11:28:12.751Z,8.37
2017-07-23T11:30:39.942Z,8.70
2017-07-23T11:33:07.133Z,3.70
2017-07-23T11:35:34.974Z,7.90
2017-07-23T11:38:02.158Z,3.07
2017-07-23T11:40:29.309Z,2.80
2017-07-23T11:42:56.792Z,3.00
2017-07-23T11:45:23.944Z,5.77
2017-07-23T11:47:51.126Z,3.20
2017-07-23T11:50:18.424Z,2.80
2017-07-23T11:52:45.585Z,3.00
2017-07-23T11:55:12.735Z,2.87
2017-07-23T11:57:39.936Z,2.07
2017-07-23T12:00:07.143Z,2.40
2017-07-23T12:02:34.321Z,2.30
2017-07-23T12:05:01.507Z,2.10
2017-07-23T12:07:28.654Z,2.10
2017-07-23T12:09:55.832Z,2.23
2017-07-23T12:12:23.028Z,2.73
2017-07-23T12:14:50.236Z,13.00
2017-07-23T12:17:17.412Z,15.47
2017-07-23T12:19:44.625Z,16.00
2017-07-23T12:22:11.791Z,13.27
2017-07-23T12:24:38.948Z,15.50
2017-07-23T12:27:06.911Z,14.30
2017-07-23T12:29:34.069Z,4.80
2017-07-23T12:32:01.265Z,4.03
2017-07-23T12:34:28.470Z,14.00
2017-07-23T12:36:55.762Z,5.77
2017-07-23T12:39:23.006Z,5.00
2017-07-23T12:41:50.163Z,3.47
2017-07-23T12:44:17.329Z,6.93
2017-07-23T12:46:44.666Z,14.60
2017-07-23T12:49:11.821Z,58.20
2017-07-23T12:51:38.979Z,49.40
2017-07-23T12:54:06.164Z,53.30
2017-07-23T12:56:33.332Z,12.10
2017-07-23T12:59:00.488Z,9.07
2017-07-23T13:01:27.688Z,19.10
2017-07-23T13:03:54.852Z,6.97
2017-07-23T13:06:22.002Z,7.60
2017-07-23T13:08:49.192Z,11.53
2017-07-23T13:11:16.400Z,13.00
2017-07-23T13:13:43.567Z,3.93
2017-07-23T13:16:10.769Z,2.80
2017-07-23T13:18:37.929Z,5.80
2017-07-23T13:21:05.209Z,4.40
2017-07-23T13:23:32.459Z,4.30
2017-07-23T13:25:59.617Z,5.40
2017-07-23T13:28:26.758Z,5.13
2017-07-23T13:30:53.966Z,3.60
2017-07-23T13:33:21.159Z,2.60
2017-07-23T13:35:48.300Z,2.93
2017-07-23T13:38:15.486Z,3.17
2017-07-23T13:40:42.632Z,2.17
2017-07-23T13:43:09.822Z,4.00
2017-07-23T13:45:36.998Z,2.70
2017-07-23T13:48:04.149Z,2.47
2017-07-23T13:50:31.300Z,2.37
2017-07-23T13:52:58.516Z,2.10
2017-07-23T13:55:25.716Z,2.20
2017-07-23T13:57:52.867Z,2.40
2017-07-23T14:00:20.058Z,2.67
2017-07-23T14:02:47.216Z,2.03
2017-07-23T14:05:14.374Z,14.10
2017-07-23T22:46:32.704Z,2.80
2017-07-23T22:48:59.370Z,3.20
2017-07-23T22:51:26.068Z,2.20
2017-07-23T22:53:52.733Z,2.47
2017-07-23T22:56:19.388Z,2.20
2017-07-23T22:58:46.308Z,2.90
2017-07-23T23:01:13.002Z,2.90
2017-07-23T23:03:39.734Z,2.23
2017-07-23T23:06:06.383Z,2.87
2017-07-23T23:08:33.229Z,6.17
2017-07-23T23:11:00.074Z,9.07
2017-07-23T23:13:26.800Z,9.20
2017-07-23T23:15:53.556Z,6.00
2017-07-23T23:18:20.197Z,3.90
2017-07-23T23:20:46.845Z,2.60
2017-07-23T23:23:13.507Z,1.80
2017-07-23T23:25:40.150Z,2.70
2017-07-23T23:28:06.849Z,2.50
2017-07-23T23:30:33.532Z,2.00
2017-07-23T23:33:00.174Z,1.97
2017-07-23T23:35:26.834Z,2.40
2017-07-23T23:37:53.529Z,2.50
2017-07-23T23:40:20.163Z,2.73
2017-07-23T23:42:46.804Z,1.70
2017-07-23T23:45:13.467Z,2.13
2017-07-23T23:47:40.181Z,1.93
2017-07-23T23:50:06.931Z,2.40
